Friday, March 27, 2015
10:18 UTC
  |  Log In   |  Register Free
Airport Search:

Talladega Municipal Airport
(KASN)

Talladega Municipal Airport Diagram
No Airport Diagram Available

FAA data valid effective March 05, 2015 - April 30, 2015 (unless otherwise noted).

 
 
 
 
 
 
 
 
 
 
 
 
 
 

Current Aviation Weather for Talladega Municipal Airport (KASN)

The most recent METAR observation for KASN was updated at: 1407
METAR Summary (Translated METAR)
KASN
251355Z AUTO 00000KT 10SM OVC055 16/13 A3019 RMK AO2 T01560131
KANB
251353Z AUTO 09003KT 10SM BKN060 16/12 A3019 RMK AO2 SLP221 T01560122
(9.7 nm NE from KASN)
KGAD
251355Z 00000KT 10SM OVC055 14/11 A3018 RMK AO1
(24.3 nm NW from KASN)
TAF Summary (Translated TAF)
KASN
(9.7 nm SW from KANB)
251125Z 2512/2612 14002KT P6SM OVC050 FM251800 19005KT P6SM BKN040
KANB
251125Z 2512/2612 08003KT P6SM OVC050 FM251800 19005KT P6SM BKN040
  Airport Weather Conditions for KASN

 Current Weather at ASN
48° F
Overcast
Northwest winds at 9.2 mph
ASN NOAA Radar

Pressure: 29.87 in
Humidity: 86%
Wind: from the Northwest at 9.2 gusting to 18.4 MPH (8 gusting to 16 KT)
Dew Point: 44.2°F
Visibility: 10.00 mi


Airport Weather Forecast for KASN

Translated METAR and TAF for KANB
Translated METAR for KANB (1017 UTC 27 March 2015)
found at http://aviationweather.gov/adds/metars/
 
METAR text: KANB 270953Z AUTO 30011G17KT 10SM OVC011 09/06 A2985 RMK AO2 RAE40 CIG 009V014 SLP106 P0001 T00890061
Conditions at: KANB (ANNISTON , AL, US) observed 0953 UTC 27 March 2015
Temperature: 8.9°C (48°F)
Dewpoint: 6.1°C (43°F) [RH = 83%]
Pressure (altimeter): 29.85 inches Hg (1010.9 mb)
[Sea-level pressure: 1010.6 mb]
Winds: from the WNW (300 degrees) at 13 MPH (11 knots; 5.7 m/s)
gusting to 20 MPH (17 knots; 8.8 m/s)
Visibility: 10 or more miles (16+ km)
Ceiling: 1100 feet AGL
Clouds: overcast cloud deck at 1100 feet AGL
Weather: automated observation with no human augmentation;
there may or may not be significant weather present at this time
Translated TAF for KANB
Forecast for: KANB (ANNISTON , AL, US)
TAF Text: KANB 270534Z 2706/2806 33010KT P6SM VCSH BKN012 OVC025
Forecast period: 0600 to 0900 UTC 27 March 2015
Forecast type: FROM: standard forecast or significant change
Winds: from the NNW (330 degrees) at 12 MPH (10 knots; 5.2 m/s)
Visibility: 6 or more miles (10+ km)
Ceiling: 1200 feet AGL
Clouds: broken clouds at 1200 feet AGL
overcast cloud deck at 2500 feet AGL
Weather: VCSH  (showers in vicinity)
TAF Text: TEMPO 2707/2709 BKN008 OVC015
Forecast period: 0700 to 0900 UTC 27 March 2015
Forecast type: TEMPORARY: The following changes expected for less than half the time period
Ceiling: 800 feet AGL
Clouds: broken clouds at 800 feet AGL
overcast cloud deck at 1500 feet AGL
Weather: no significant weather forecast for this period
TAF Text: FM270900 33010KT P6SM SCT008 OVC015
Forecast period: 0900 to 1200 UTC 27 March 2015
Forecast type: FROM: standard forecast or significant change
Winds: from the NNW (330 degrees) at 12 MPH (10 knots; 5.2 m/s)
Visibility: 6 or more miles (10+ km)
Ceiling: 1500 feet AGL
Clouds: scattered clouds at 800 feet AGL
overcast cloud deck at 1500 feet AGL
Weather: no significant weather forecast for this period
TAF Text: TEMPO 2709/2712 BKN008 OVC015
Forecast period: 0900 to 1200 UTC 27 March 2015
Forecast type: TEMPORARY: The following changes expected for less than half the time period
Ceiling: 800 feet AGL
Clouds: broken clouds at 800 feet AGL
overcast cloud deck at 1500 feet AGL
Weather: no significant weather forecast for this period
TAF Text: FM271200 34010KT P6SM OVC025
Forecast period: 1200 to 1500 UTC 27 March 2015
Forecast type: FROM: standard forecast or significant change
Winds: from the NNW (340 degrees) at 12 MPH (10 knots; 5.2 m/s)
Visibility: 6 or more miles (10+ km)
Ceiling: 2500 feet AGL
Clouds: overcast cloud deck at 2500 feet AGL
Weather: no significant weather forecast for this period
TAF Text: FM271500 32009KT P6SM SCT030
Forecast period: 1500 UTC 27 March 2015 to 0600 UTC 28 March 2015
Forecast type: FROM: standard forecast or significant change
Winds: from the NW (320 degrees) at 10 MPH (9 knots; 4.7 m/s)
Visibility: 6 or more miles (10+ km)
Clouds: scattered clouds at 3000 feet AGL
Weather: no significant weather forecast for this period

Find All Airport Services Find A Hotel Find A Rental Car Find A Golf Course Find A Restaurant $100 Hamburger



FBO's on the Field
FBO Company Facility Photos Services Transportation Aviation Fuel Prices: Prices include tax
Catering Weather Repair Courtesy Rental Type 100LL JetA JetA+ MOGAS 8087
 
Talladega Municipal

This FBO has not yet been rated
FS:Phillips 66
Last Updated: Mar-03
Login to update fuel prices
SS:
Contact Talladega MunicipalMore FBO Information
 
Add another FBO Facility Photos Catering Weather Repair Courtesy Rental Type 100LL JetA JetA+ MOGAS 8087
Services Transportation Aviation Fuel Prices: Prices include tax


model-print
model-print
model-print
model-print